Time;durP1;ratioP1;P1;durP2;ratioP2;P2;SDS_P1;SDS_P2;PMS_P1;PMS_P2;Temp;Humidity;BMP_temperature;BMP_pressure;BME280_temperature;BME280_humidity;BME280_pressure;Samples;Min_cycle;Max_cycle;Signal;HPM_P1;HPM_P2
2022/12/04 00:00:41;;;;;;;34.87;14.70;;;;;;;;;;6241128;23;20230;-88
2022/12/04 00:03:07;;;;;;;39.73;16.50;;;;;;;;;;6216234;23;20556;-88
2022/12/04 00:05:33;;;;;;;33.63;14.40;;;;;;;;;;6215694;23;20966;-88
2022/12/04 00:07:59;;;;;;;27.57;14.07;;;;;;;;;;6206992;23;20444;-88
2022/12/04 00:10:25;;;;;;;30.05;13.65;;;;;;;;;;6209419;23;20404;-88
2022/12/04 00:12:51;;;;;;;32.17;12.70;;;;;;;;;;6208393;23;20196;-86
2022/12/04 00:15:17;;;;;;;34.10;14.85;;;2.00;99.90;;;;;;6211219;23;20856;-87
2022/12/04 00:17:46;;;;;;;33.20;15.27;;;2.00;99.90;;;;;;6235730;23;20233;-88
2022/12/04 00:20:12;;;;;;;39.42;16.13;;;2.00;99.90;;;;;;6207705;23;20205;-87
2022/12/04 00:22:38;;;;;;;33.23;14.37;;;;;;;;;;6212170;23;20196;-87
2022/12/04 00:25:04;;;;;;;31.77;15.00;;;2.10;99.90;;;;;;6207570;23;20181;-89
2022/12/04 00:27:29;;;;;;;32.67;16.60;;;2.10;99.90;;;;;;6202713;23;20376;-88
2022/12/04 00:29:55;;;;;;;41.27;15.63;;;;;;;;;;6215385;23;20743;-88
2022/12/04 00:32:21;;;;;;;32.13;14.87;;;2.00;99.90;;;;;;6204509;23;20173;-87
2022/12/04 00:34:47;;;;;;;28.20;12.93;;;;;;;;;;6207635;23;20439;-88
2022/12/04 00:37:12;;;;;;;39.57;15.40;;;2.00;99.90;;;;;;6211244;23;20221;-86
2022/12/04 00:39:38;;;;;;;30.90;13.53;;;;;;;;;;6217496;23;20360;-86
2022/12/04 00:42:04;;;;;;;26.33;13.73;;;2.10;99.90;;;;;;6225182;23;20193;-87
2022/12/04 00:44:29;;;;;;;36.50;16.30;;;3.30;99.90;;;;;;6237024;23;20391;-86
2022/12/04 00:46:55;;;;;;;28.90;13.20;;;2.10;99.90;;;;;;6254249;22;20157;-84
2022/12/04 00:49:20;;;;;;;29.00;14.20;;;2.10;99.90;;;;;;6223591;23;20164;-84
2022/12/04 00:51:46;;;;;;;25.27;13.60;;;2.10;99.90;;;;;;6233346;23;20173;-86
2022/12/04 00:54:11;;;;;;;30.97;13.37;;;2.10;99.90;;;;;;6211483;23;20169;-88
2022/12/04 00:56:38;;;;;;;30.50;13.70;;;2.10;99.90;;;;;;6233506;23;20153;-88
2022/12/04 00:59:03;;;;;;;27.73;15.75;;;1.90;99.90;;;;;;6233891;23;20155;-87
2022/12/04 01:01:29;;;;;;;30.57;13.03;;;2.20;99.90;;;;;;6236102;23;20248;-85
2022/12/04 01:03:55;;;;;;;29.07;14.27;;;;;;;;;;6205974;23;20745;-88
2022/12/04 01:06:23;;;;;;;28.60;13.30;;;2.20;99.90;;;;;;6206020;23;20180;-88
2022/12/04 01:08:50;;;;;;;28.17;12.77;;;2.20;99.90;;;;;;6207072;23;20188;-88
2022/12/04 01:11:16;;;;;;;29.98;14.25;;;2.30;99.90;;;;;;6212248;23;20192;-87
2022/12/04 01:13:42;;;;;;;25.13;12.20;;;2.30;99.90;;;;;;6208747;23;20189;-88
2022/12/04 01:16:08;;;;;;;29.63;14.40;;;2.30;99.90;;;;;;6207371;23;20208;-85
2022/12/04 01:18:33;;;;;;;38.47;15.60;;;;;;;;;;6209029;23;20618;-86
2022/12/04 01:20:59;;;;;;;27.33;13.17;;;;;;;;;;6210426;23;20173;-87
2022/12/04 01:23:25;;;;;;;24.40;12.70;;;2.20;99.90;;;;;;6207720;23;20380;-86
2022/12/04 01:25:56;;;;;;;40.37;15.90;;;2.20;99.90;;;;;;6208677;23;20917;-88
2022/12/04 01:28:23;;;;;;;27.23;12.70;;;2.30;99.90;;;;;;6209841;23;20149;-88
2022/12/04 01:31:03;;;;;;;32.08;14.13;;;2.30;99.90;;;;;;6212917;23;20518;-87
2022/12/04 01:33:29;;;;;;;30.52;14.00;;;2.30;99.90;;;;;;6212924;23;20188;-87
2022/12/04 01:35:57;;;;;;;35.53;14.77;;;2.30;99.90;;;;;;6210699;23;20157;-86
2022/12/04 01:38:23;;;;;;;25.95;12.55;;;2.30;99.90;;;;;;6211998;23;20161;-90
2022/12/04 01:40:49;;;;;;;26.63;12.70;;;2.30;99.90;;;;;;6210183;23;20169;-89
2022/12/04 01:43:16;;;;;;;29.80;14.10;;;2.30;99.90;;;;;;6207228;23;20492;-87
2022/12/04 01:45:43;;;;;;;32.65;13.75;;;2.40;99.90;;;;;;6207066;23;20164;-86
2022/12/04 01:48:20;;;;;;;27.75;13.30;;;2.40;99.90;;;;;;6208527;23;20157;-87
2022/12/04 01:50:48;;;;;;;27.52;13.90;;;2.40;99.90;;;;;;6213538;23;20196;-88
2022/12/04 01:53:14;;;;;;;27.38;14.55;;;2.40;99.90;;;;;;6210604;23;20199;-88
2022/12/04 01:55:40;;;;;;;25.37;12.30;;;2.40;99.90;;;;;;6209727;23;20209;-87
2022/12/04 01:58:07;;;;;;;35.70;14.07;;;2.30;99.90;;;;;;6211984;23;20394;-87
2022/12/04 02:00:33;;;;;;;33.33;14.40;;;2.40;99.90;;;;;;6206718;23;20492;-89
2022/12/04 02:03:00;;;;;;;34.78;14.05;;;2.40;99.90;;;;;;6233455;23;20973;-88
2022/12/04 02:05:25;;;;;;;29.88;15.00;;;2.50;99.90;;;;;;6208932;23;20612;-87
2022/12/04 02:07:56;;;;;;;30.20;13.10;;;2.50;99.90;;;;;;6208052;23;20153;-87
2022/12/04 02:10:29;;;;;;;31.52;14.65;;;2.50;99.90;;;;;;6210550;23;20675;-86
2022/12/04 02:13:01;;;;;;;29.23;13.07;;;3.80;99.90;;;;;;6207681;23;20169;-88
2022/12/04 02:15:30;;;;;;;28.20;15.30;;;2.50;99.90;;;;;;6228440;23;20129;-87
2022/12/04 02:18:01;;;;;;;29.45;12.32;;;2.60;99.90;;;;;;6224999;22;20149;-87
2022/12/04 02:20:32;;;;;;;25.80;11.48;;;2.60;99.90;;;;;;6210952;23;20166;-88
2022/12/04 02:23:26;;;;;;;33.97;14.20;;;2.60;99.90;;;;;;6209666;23;20187;-88
2022/12/04 02:26:17;;;;;;;29.38;12.80;;;2.60;99.90;;;;;;6209956;23;20150;-87
2022/12/04 02:28:53;;;;;;;32.80;13.90;;;2.60;99.90;;;;;;6208079;23;20141;-87
2022/12/04 02:31:25;;;;;;;38.80;14.98;;;2.50;99.90;;;;;;6208383;23;20189;-87
2022/12/04 02:34:14;;;;;;;22.92;11.60;;;2.50;99.90;;;;;;6207942;23;20201;-87
2022/12/04 02:36:47;;;;;;;25.83;12.13;;;2.50;99.90;;;;;;6206060;23;20632;-86
2022/12/04 02:39:25;;;;;;;29.05;12.65;;;2.60;99.90;;;;;;6207136;23;20472;-88
2022/12/04 02:42:00;;;;;;;30.20;12.57;;;2.50;99.90;;;;;;6205970;23;20176;-86
2022/12/04 02:44:35;;;;;;;30.77;14.02;;;2.60;99.90;;;;;;6203986;23;20252;-85
2022/12/04 02:47:06;;;;;;;25.95;12.52;;;2.50;99.90;;;;;;6205447;23;20141;-87
2022/12/04 02:49:49;;;;;;;26.90;12.85;;;2.60;99.90;;;;;;6206631;23;20307;-87
2022/12/04 02:52:21;;;;;;;25.30;13.77;;;2.60;99.90;;;;;;6208478;23;20172;-87
2022/12/04 02:54:52;;;;;;;25.17;13.20;;;2.60;99.90;;;;;;6209866;23;20161;-88
2022/12/04 02:57:28;;;;;;;31.95;13.25;;;2.70;99.90;;;;;;6210029;23;20130;-87
2022/12/04 02:59:56;;;;;;;25.65;13.02;;;2.70;99.90;;;;;;6204796;23;21009;-88
2022/12/04 03:02:33;;;;;;;30.77;12.77;;;2.70;99.90;;;;;;6208356;23;20203;-89
2022/12/04 03:05:06;;;;;;;25.10;13.25;;;2.70;99.90;;;;;;6205471;23;20547;-87
2022/12/04 03:07:49;;;;;;;24.63;13.65;;;2.70;99.90;;;;;;6212362;23;20150;-88
2022/12/04 03:10:21;;;;;;;28.33;12.88;;;2.70;99.90;;;;;;6214749;23;20169;-87
2022/12/04 03:12:52;;;;;;;36.63;16.52;;;2.70;99.90;;;;;;6203122;23;20165;-89
2022/12/04 03:15:33;;;;;;;34.40;15.80;;;2.70;99.90;;;;;;6209108;23;20656;-87
2022/12/04 03:18:18;;;;;;;29.38;14.02;;;3.00;99.90;;;;;;6212164;23;20317;-87
2022/12/04 03:20:47;;;;;;;25.77;15.48;;;2.60;99.90;;;;;;6211912;23;20183;-85
2022/12/04 03:23:29;;;;;;;26.23;11.38;;;2.70;99.90;;;;;;6220904;23;20160;-88
2022/12/04 03:26:14;;;;;;;30.83;12.88;;;2.60;99.90;;;;;;6212556;23;20145;-87
2022/12/04 03:28:43;;;;;;;30.63;13.88;;;2.70;99.90;;;;;;6209651;23;20241;-87
2022/12/04 03:31:09;;;;;;;27.27;12.70;;;2.70;99.90;;;;;;6209710;23;20209;-87
2022/12/04 03:33:41;;;;;;;27.17;13.85;;;2.70;99.90;;;;;;6212699;23;20212;-87
2022/12/04 03:36:18;;;;;;;29.95;12.10;;;2.70;99.90;;;;;;6212114;23;20133;-87
2022/12/04 03:39:07;;;;;;;22.40;11.45;;;2.80;99.90;;;;;;6210520;23;20140;-86
2022/12/04 03:42:09;;;;;;;21.67;11.07;;;2.90;99.90;;;;;;6210258;23;20180;-85
2022/12/04 03:44:45;;;;;;;23.33;11.77;;;2.80;99.90;;;;;;6238170;23;20133;-90
2022/12/04 03:47:23;;;;;;;30.58;12.38;;;2.80;99.90;;;;;;6221247;23;20689;-93
2022/12/04 03:50:06;;;;;;;29.52;12.05;;;2.80;99.90;;;;;;6214451;23;20145;-90
2022/12/04 03:52:57;;;;;;;24.50;12.15;;;2.80;99.90;;;;;;6212615;23;20499;-89
2022/12/04 03:55:34;;;;;;;26.10;12.32;;;2.70;99.90;;;;;;6212973;23;20550;-90
2022/12/04 03:58:07;;;;;;;27.63;13.65;;;2.70;99.90;;;;;;6207459;23;20138;-92
2022/12/04 04:00:38;;;;;;;23.88;12.18;;;2.70;99.90;;;;;;6211866;23;20176;-92
2022/12/04 04:03:23;;;;;;;29.27;12.35;;;2.70;99.90;;;;;;6212318;23;20707;-88
2022/12/04 04:05:54;;;;;;;40.45;23.23;;;2.70;99.90;;;;;;6213683;23;20157;-89
2022/12/04 04:08:28;;;;;;;25.45;11.85;;;2.60;99.90;;;;;;6215698;23;20592;-91
2022/12/04 04:11:05;;;;;;;35.95;18.45;;;2.70;99.90;;;;;;6214195;23;20183;-91
2022/12/04 04:25:12;;;;;;;26.20;12.70;;;2.70;99.90;;;;;;6215836;23;20149;-91
2022/12/04 04:27:37;;;;;;;27.27;12.63;;;2.70;99.90;;;;;;6211532;23;20160;-92
2022/12/04 04:30:05;;;;;;;28.97;13.70;;;2.90;99.90;;;;;;6246852;22;20149;-92
2022/12/04 04:32:53;;;;;;;27.10;12.60;;;2.80;99.90;;;;;;6228115;22;20630;-91
2022/12/04 04:35:24;;;;;;;24.15;11.63;;;2.80;99.90;;;;;;6212129;23;20160;-91
2022/12/04 04:38:05;;;;;;;22.48;11.18;;;2.90;99.90;;;;;;6212146;23;20212;-90
2022/12/04 04:40:55;;;;;;;24.80;11.02;;;2.90;99.90;;;;;;6213803;23;20165;-90
2022/12/04 04:43:43;;;;;;;31.08;13.43;;;2.90;99.90;;;;;;6211882;23;21026;-91
2022/12/04 04:46:17;;;;;;;28.92;12.73;;;2.80;99.90;;;;;;6151720;23;20161;-90
2022/12/04 04:48:50;;;;;;;28.20;12.90;;;2.80;99.90;;;;;;6208983;23;20142;-91
2022/12/04 04:51:16;;;;;;;26.05;11.50;;;2.80;99.90;;;;;;6208550;23;20259;-90
2022/12/04 04:53:46;;;;;;;22.40;9.68;;;2.90;99.90;;;;;;6209224;23;20222;-90
2022/12/04 04:56:13;;;;;;;32.55;13.45;;;2.90;99.90;;;;;;6210080;23;20142;-92
2022/12/04 04:58:40;;;;;;;26.08;11.52;;;3.00;99.90;;;;;;6205286;23;20149;-91
2022/12/04 05:01:13;;;;;;;23.35;10.40;;;2.90;99.90;;;;;;6210277;23;20176;-92
2022/12/04 05:03:39;;;;;;;29.55;14.00;;;3.00;99.90;;;;;;6207332;23;20679;-90
2022/12/04 05:06:07;;;;;;;25.58;12.90;;;3.00;99.90;;;;;;6210008;23;20153;-91
2022/12/04 05:08:34;;;;;;;26.75;12.40;;;2.90;99.90;;;;;;6234633;23;20153;-90
2022/12/04 05:10:59;;;;;;;27.92;11.65;;;2.90;99.90;;;;;;6211296;23;20204;-92
2022/12/04 05:13:27;;;;;;;34.00;12.90;;;2.90;99.90;;;;;;6239579;22;20193;-92
2022/12/04 05:16:01;;;;;;;30.08;14.57;;;2.90;99.90;;;;;;6217318;22;20713;-90
2022/12/04 05:18:27;;;;;;;23.40;12.30;;;2.90;99.90;;;;;;6213616;23;20153;-91
2022/12/04 05:20:53;;;;;;;32.20;13.70;;;2.90;99.90;;;;;;6211509;23;20223;-91
2022/12/04 05:23:19;;;;;;;26.27;11.53;;;;;;;;;;6213479;23;20149;-91
2022/12/04 05:25:45;;;;;;;27.20;12.83;;;;;;;;;;6212415;23;20157;-91
2022/12/04 05:28:10;;;;;;;49.20;22.48;;;3.00;99.90;;;;;;6209918;23;20384;-90
2022/12/04 05:30:36;;;;;;;49.20;21.10;;;;;;;;;;6211856;23;20180;-91
2022/12/04 05:33:02;;;;;;;28.20;13.80;;;2.90;99.90;;;;;;6204680;23;20176;-93
2022/12/04 05:35:29;;;;;;;27.60;14.90;;;3.00;99.90;;;;;;6233056;23;20384;-90
2022/12/04 05:37:54;;;;;;;27.80;11.90;;;2.90;99.90;;;;;;6208201;23;20152;-91
2022/12/04 05:40:20;;;;;;;27.87;12.67;;;;;;;;;;6210776;23;20499;-91
2022/12/04 05:42:46;;;;;;;30.53;12.63;;;;;;;;;;6210249;23;20161;-91
2022/12/04 05:45:11;;;;;;;32.87;13.77;;;2.80;99.90;;;;;;6208959;23;20391;-90
2022/12/04 05:47:42;;;;;;;29.13;13.20;;;2.90;99.90;;;;;;6233574;23;20384;-91
2022/12/04 05:50:09;;;;;;;25.98;11.32;;;2.80;99.90;;;;;;6212098;23;20226;-91
2022/12/04 05:52:35;;;;;;;28.38;13.50;;;3.00;99.90;;;;;;6212054;23;20583;-90
2022/12/04 05:55:02;;;;;;;29.23;12.50;;;3.10;99.90;;;;;;6235171;23;20153;-91
2022/12/04 05:57:27;;;;;;;30.48;12.25;;;3.10;99.90;;;;;;6208762;23;20288;-91
2022/12/04 05:59:53;;;;;;;25.33;12.87;;;;;;;;;;6210629;23;20199;-90
2022/12/04 06:02:19;;;;;;;26.50;11.97;;;;;;;;;;6206601;23;20382;-90
2022/12/04 06:04:48;;;;;;;30.10;12.88;;;2.90;99.90;;;;;;6206187;23;20408;-91
2022/12/04 06:07:13;;;;;;;29.25;13.48;;;3.00;99.90;;;;;;6210837;23;20148;-90
2022/12/04 06:09:39;;;;;;;28.60;12.63;;;;;;;;;;6211635;23;20189;-90
2022/12/04 06:12:05;;;;;;;23.73;11.37;;;3.00;99.90;;;;;;6209397;23;20219;-90
2022/12/04 06:14:31;;;;;;;23.67;12.40;;;3.00;99.90;;;;;;6208653;23;20424;-90
2022/12/04 06:16:56;;;;;;;23.77;11.10;;;3.00;99.90;;;;;;6210179;23;20148;-89
2022/12/04 06:19:22;;;;;;;26.87;12.67;;;2.80;99.90;;;;;;6210906;23;20149;-89
2022/12/04 06:21:51;;;;;;;29.23;11.68;;;2.90;99.90;;;;;;6206755;23;20176;-89
2022/12/04 06:24:22;;;;;;;29.00;11.48;;;3.10;99.90;;;;;;6204987;23;20168;-88
2022/12/04 06:26:48;;;;;;;24.17;9.60;;;3.00;99.90;;;;;;6207146;23;20180;-88
2022/12/04 06:29:14;;;;;;;20.27;9.40;;;3.10;99.90;;;;;;6204965;23;20651;-88
2022/12/04 06:31:41;;;;;;;25.88;11.50;;;3.00;99.90;;;;;;6211488;23;20196;-89
2022/12/04 06:34:07;;;;;;;27.88;10.80;;;3.10;99.90;;;;;;6210081;23;20171;-88
2022/12/04 06:36:33;;;;;;;26.77;10.68;;;2.90;99.90;;;;;;6208644;23;20177;-87
2022/12/04 06:38:59;;;;;;;23.20;10.65;;;2.80;99.90;;;;;;6234533;23;20316;-87
2022/12/04 06:41:26;;;;;;;26.83;11.73;;;2.80;99.90;;;;;;6225901;23;20442;-86
2022/12/04 06:43:52;;;;;;;28.77;12.23;;;3.50;99.90;;;;;;6221282;23;20153;-86
2022/12/04 06:46:20;;;;;;;30.50;12.90;;;2.80;99.90;;;;;;6208928;23;20327;-87
2022/12/04 06:48:46;;;;;;;27.95;11.85;;;2.90;99.90;;;;;;6207240;23;20364;-86
2022/12/04 06:51:21;;;;;;;26.83;12.03;;;2.80;99.90;;;;;;6205036;23;20663;-87
2022/12/04 06:53:47;;;;;;;23.00;9.93;;;2.90;99.90;;;;;;6203393;23;20794;-86
2022/12/04 06:56:17;;;;;;;23.17;11.30;;;3.00;99.90;;;;;;6204627;23;20536;-86
2022/12/04 06:58:44;;;;;;;28.50;12.55;;;2.50;99.90;;;;;;6206604;23;21118;-88
2022/12/04 07:01:12;;;;;;;30.75;14.38;;;2.70;99.90;;;;;;6206330;23;20664;-86
2022/12/04 07:03:38;;;;;;;33.20;14.88;;;3.00;99.90;;;;;;6204905;23;20156;-88
2022/12/04 07:06:22;;;;;;;33.97;18.93;;;2.90;99.90;;;;;;6207759;23;20298;-87
2022/12/04 07:08:51;;;;;;;31.42;13.18;;;3.00;99.90;;;;;;6209537;23;20380;-88
2022/12/04 07:11:17;;;;;;;26.08;14.88;;;3.00;99.90;;;;;;6202568;23;20415;-85
2022/12/04 07:13:43;;;;;;;26.27;11.32;;;3.10;99.90;;;;;;6207985;23;20710;-87
2022/12/04 07:16:12;;;;;;;22.77;10.50;;;2.00;99.90;;;;;;6217515;23;20138;-85
2022/12/04 07:18:38;;;;;;;31.05;12.00;;;3.00;99.90;;;;;;6210804;23;20163;-89
2022/12/04 07:21:06;;;;;;;32.13;11.87;;;3.00;99.90;;;;;;6207525;23;21007;-86
2022/12/04 07:23:32;;;;;;;27.48;13.68;;;3.00;99.90;;;;;;6204114;23;20161;-89
2022/12/04 07:25:57;;;;;;;27.17;12.57;;;3.00;99.90;;;;;;6208984;23;20211;-88
2022/12/04 07:28:23;;;;;;;29.13;13.43;;;3.00;99.90;;;;;;6206513;23;20415;-89
2022/12/04 07:30:48;;;;;;;29.67;15.10;;;2.90;99.90;;;;;;6232307;23;20510;-89
2022/12/04 07:33:14;;;;;;;21.93;10.90;;;;;;;;;;6207709;23;20181;-87
2022/12/04 07:35:40;;;;;;;32.27;13.13;;;3.00;99.90;;;;;;6203523;23;20698;-90
2022/12/04 07:38:05;;;;;;;26.93;13.20;;;3.00;99.90;;;;;;6230891;23;20384;-90
2022/12/04 07:40:31;;;;;;;28.50;11.37;;;;;;;;;;6210677;23;20167;-90
2022/12/04 07:42:57;;;;;;;24.43;11.70;;;;;;;;;;6210465;23;20248;-91
2022/12/04 07:45:23;;;;;;;22.50;11.83;;;;;;;;;;6210193;23;20376;-88
2022/12/04 07:47:49;;;;;;;28.80;13.50;;;;;;;;;;6209939;23;20455;-90
2022/12/04 07:50:15;;;;;;;24.37;12.53;;;3.10;99.90;;;;;;6215349;23;20392;-86
2022/12/04 07:52:41;;;;;;;35.57;14.83;;;;;;;;;;6206419;23;20371;-88
2022/12/04 07:55:08;;;;;;;26.70;12.20;;;3.00;99.90;;;;;;6211107;23;20231;-88
2022/12/04 07:57:33;;;;;;;28.80;13.07;;;2.90;99.90;;;;;;6208837;23;20716;-89
2022/12/04 07:59:59;;;;;;;28.07;13.97;;;3.00;99.90;;;;;;6212913;23;20520;-90
2022/12/04 08:02:25;;;;;;;33.33;16.80;;;2.90;99.90;;;;;;6211830;23;20214;-92
2022/12/04 08:04:50;;;;;;;29.73;13.38;;;2.90;99.90;;;;;;6210125;23;20145;-90
2022/12/04 08:07:17;;;;;;;51.33;21.83;;;3.10;99.90;;;;;;6208958;23;20149;-88
2022/12/04 08:09:42;;;;;;;24.20;11.77;;;2.90;99.90;;;;;;6240677;23;20153;-88
2022/12/04 08:12:08;;;;;;;26.07;11.67;;;3.00;99.90;;;;;;6227562;22;20181;-89
2022/12/04 08:14:34;;;;;;;25.40;14.10;;;;;;;;;;6208296;23;20173;-88
2022/12/04 08:17:00;;;;;;;29.63;12.73;;;;;;;;;;6211256;23;20156;-88
2022/12/04 08:19:26;;;;;;;22.33;10.83;;;3.00;99.90;;;;;;6210863;23;20357;-89
2022/12/04 08:21:53;;;;;;;31.73;11.30;;;3.00;99.90;;;;;;6206934;23;20407;-87
2022/12/04 08:24:19;;;;;;;22.77;10.98;;;3.00;99.90;;;;;;6204949;23;20179;-86
2022/12/04 08:26:44;;;;;;;29.53;12.63;;;3.00;99.90;;;;;;6208647;23;20203;-87
2022/12/04 08:29:10;;;;;;;29.23;11.87;;;;;;;;;;6233124;23;20157;-87
2022/12/04 08:31:36;;;;;;;23.17;12.13;;;3.00;99.90;;;;;;6227577;22;20181;-85
2022/12/04 08:34:04;;;;;;;24.53;11.77;;;3.20;99.90;;;;;;6234212;22;20144;-84
2022/12/04 08:36:30;;;;;;;26.38;11.95;;;3.00;99.90;;;;;;6226098;23;21021;-87
2022/12/04 08:38:56;;;;;;;23.50;11.93;;;;;;;;;;6216833;23;20146;-87
2022/12/04 08:41:23;;;;;;;30.85;12.68;;;3.00;99.90;;;;;;6209129;23;20184;-88
2022/12/04 08:43:50;;;;;;;39.10;15.52;;;3.10;99.90;;;;;;6220170;23;20149;-89
2022/12/04 08:46:17;;;;;;;28.08;12.38;;;3.20;99.90;;;;;;6216445;23;20157;-88
2022/12/04 08:48:43;;;;;;;35.85;13.88;;;3.30;99.90;;;;;;6215961;23;20497;-89
2022/12/04 08:51:18;;;;;;;24.30;10.55;;;3.30;99.90;;;;;;6230079;23;20183;-88
2022/12/04 08:53:44;;;;;;;23.38;11.90;;;3.30;99.90;;;;;;6214889;23;20609;-88
2022/12/04 08:56:09;;;;;;;22.23;11.07;;;3.30;99.90;;;;;;6218250;23;20186;-87
2022/12/04 08:58:35;;;;;;;25.40;12.00;;;6.20;99.90;;;;;;6217319;23;20357;-90
2022/12/04 09:01:09;;;;;;;21.17;11.10;;;3.20;99.90;;;;;;6237258;23;20181;-88
2022/12/04 09:03:35;;;;;;;25.27;12.45;;;3.20;99.90;;;;;;6216886;23;20138;-87
2022/12/04 09:06:01;;;;;;;22.60;10.23;;;3.10;99.90;;;;;;6242786;23;20219;-88
2022/12/04 09:08:27;;;;;;;20.52;10.95;;;3.30;99.90;;;;;;6214471;23;20416;-87
2022/12/04 09:10:53;;;;;;;26.00;12.43;;;3.30;99.90;;;;;;6212210;23;20992;-88
2022/12/04 09:13:18;;;;;;;39.73;18.57;;;3.40;99.90;;;;;;6212140;23;20165;-89
2022/12/04 09:15:44;;;;;;;28.60;13.03;;;3.40;99.90;;;;;;6209519;23;20130;-88
2022/12/04 09:18:10;;;;;;;21.90;10.93;;;;;;;;;;6212941;23;20527;-88
2022/12/04 09:20:36;;;;;;;22.97;11.33;;;3.50;99.90;;;;;;6212725;23;20180;-87
2022/12/04 09:23:03;;;;;;;22.42;12.02;;;3.50;99.90;;;;;;6235775;23;20391;-88
2022/12/04 09:25:30;;;;;;;27.00;11.45;;;3.50;99.90;;;;;;6213957;23;20624;-86
2022/12/04 09:27:55;;;;;;;21.52;12.10;;;3.40;99.90;;;;;;6211224;23;20161;-88
2022/12/04 09:30:21;;;;;;;27.33;11.97;;;;;;;;;;6213273;23;20653;-88
2022/12/04 09:32:47;;;;;;;25.73;11.13;;;3.40;99.90;;;;;;6214375;23;20171;-89
2022/12/04 09:35:12;;;;;;;21.23;10.67;;;3.40;99.90;;;;;;6216701;23;20499;-88
2022/12/04 09:37:38;;;;;;;27.00;10.73;;;;;;;;;;6215379;23;20149;-88
2022/12/04 09:40:18;;;;;;;19.90;10.33;;;3.50;99.90;;;;;;6231201;23;20156;-86
2022/12/04 09:43:11;;;;;;;22.98;10.25;;;3.50;99.90;;;;;;6231259;23;20392;-88
2022/12/04 09:45:45;;;;;;;29.42;11.90;;;3.50;99.90;;;;;;6204447;23;20164;-88
2022/12/04 09:48:11;;;;;;;19.63;9.80;;;3.60;99.90;;;;;;6214979;23;20148;-88
2022/12/04 09:50:42;;;;;;;21.35;10.38;;;3.60;99.90;;;;;;6215617;23;20181;-89
2022/12/04 09:53:26;;;;;;;23.15;11.18;;;3.70;99.90;;;;;;6231722;23;20196;-88
2022/12/04 09:55:55;;;;;;;29.23;11.65;;;3.70;99.90;;;;;;6225165;23;20144;-89
2022/12/04 09:58:26;;;;;;;25.75;11.65;;;3.70;99.90;;;;;;6221565;23;20145;-88
2022/12/04 10:00:54;;;;;;;28.65;12.70;;;3.60;99.90;;;;;;6219057;23;20166;-87
2022/12/04 10:03:24;;;;;;;32.38;15.82;;;3.60;99.90;;;;;;6221771;23;20153;-89
2022/12/04 10:06:15;;;;;;;21.75;12.60;;;3.50;99.90;;;;;;6205987;23;20157;-87
2022/12/04 10:08:44;;;;;;;32.83;17.80;;;3.50;99.90;;;;;;6211003;23;20157;-88
2022/12/04 10:11:25;;;;;;;27.20;12.50;;;3.50;99.90;;;;;;6213257;23;20196;-89
2022/12/04 10:14:20;;;;;;;24.67;12.13;;;3.50;99.90;;;;;;6207653;23;20165;-87
2022/12/04 10:16:54;;;;;;;30.08;12.48;;;3.50;99.90;;;;;;6173751;23;20616;-88
2022/12/04 10:19:54;;;;;;;27.17;11.93;;;3.60;99.90;;;;;;6201330;23;20230;-87
2022/12/04 10:22:49;;;;;;;20.20;10.52;;;3.70;99.90;;;;;;6205550;23;20634;-87
2022/12/04 10:25:19;;;;;;;30.08;11.88;;;3.70;99.90;;;;;;6197069;23;20163;-89
2022/12/04 10:27:50;;;;;;;31.73;13.93;;;3.70;99.90;;;;;;6203539;23;20156;-88
2022/12/04 10:30:20;;;;;;;22.30;10.30;;;3.80;99.90;;;;;;6205212;23;20222;-89
2022/12/04 10:32:47;;;;;;;21.30;10.95;;;3.80;99.90;;;;;;6203181;23;20157;-88
2022/12/04 10:35:22;;;;;;;26.33;11.77;;;3.90;99.90;;;;;;6201687;23;20157;-87
2022/12/04 10:38:29;;;;;;;26.65;9.90;;;3.90;99.90;;;;;;6207955;23;20165;-88
2022/12/04 10:40:59;;;;;;;27.13;11.73;;;4.00;99.90;;;;;;6204665;23;20224;-88
2022/12/04 10:43:44;;;;;;;25.15;12.30;;;3.90;99.90;;;;;;6210191;23;20224;-88
2022/12/04 10:46:14;;;;;;;30.08;14.55;;;4.00;99.90;;;;;;6205353;23;20137;-89
2022/12/04 10:48:43;;;;;;;28.67;11.65;;;4.00;99.90;;;;;;6201275;23;20141;-88
2022/12/04 10:51:20;;;;;;;27.73;11.90;;;4.00;99.90;;;;;;6206469;23;20260;-89
2022/12/04 10:53:48;;;;;;;26.40;12.43;;;4.10;99.90;;;;;;6207858;23;20254;-88
2022/12/04 10:56:18;;;;;;;30.20;12.07;;;4.10;99.90;;;;;;6208966;23;20419;-88
2022/12/04 10:59:04;;;;;;;26.52;12.38;;;4.20;99.90;;;;;;6199284;23;20165;-88
2022/12/04 11:01:32;;;;;;;26.15;11.30;;;4.20;99.90;;;;;;6210907;23;20164;-89
2022/12/04 11:04:29;;;;;;;21.90;10.32;;;4.20;99.90;;;;;;6207851;23;20191;-88
2022/12/04 11:07:03;;;;;;;21.48;12.05;;;4.30;99.90;;;;;;6190893;23;20196;-88
2022/12/04 11:09:33;;;;;;;32.20;13.32;;;4.30;99.90;;;;;;6225406;23;20310;-87
2022/12/04 11:12:08;;;;;;;24.50;11.25;;;4.20;99.90;;;;;;6231076;22;20647;-88
2022/12/04 11:14:34;;;;;;;20.65;10.75;;;4.10;99.90;;;;;;6217907;23;20172;-88
2022/12/04 11:17:05;;;;;;;23.43;12.67;;;3.70;99.90;;;;;;6248235;23;20148;-89
2022/12/04 11:19:33;;;;;;;47.50;22.85;;;3.70;99.90;;;;;;6213387;23;20144;-88
2022/12/04 11:22:13;;;;;;;25.80;11.65;;;3.50;99.90;;;;;;6212915;23;20165;-87
2022/12/04 11:24:41;;;;;;;28.17;14.80;;;3.70;99.90;;;;;;6208969;23;20157;-88
2022/12/04 11:27:15;;;;;;;22.20;10.30;;;4.10;99.90;;;;;;6212827;23;20141;-87
2022/12/04 11:29:42;;;;;;;29.73;14.10;;;3.80;99.90;;;;;;6209685;23;20748;-89
2022/12/04 11:32:22;;;;;;;23.48;12.20;;;3.80;99.90;;;;;;6211336;23;20185;-89
2022/12/04 11:34:50;;;;;;;26.55;10.95;;;3.90;99.90;;;;;;6212291;23;20165;-88
2022/12/04 11:37:26;;;;;;;23.20;11.00;;;4.00;99.90;;;;;;6213722;23;20168;-89
2022/12/04 11:39:53;;;;;;;26.27;12.27;;;4.20;99.90;;;;;;6214966;23;20134;-89
2022/12/04 11:42:24;;;;;;;26.23;12.57;;;4.10;99.90;;;;;;6207059;23;20737;-89
2022/12/04 11:44:53;;;;;;;30.17;13.20;;;4.20;99.90;;;;;;6215021;23;20260;-89
2022/12/04 11:47:20;;;;;;;23.30;11.85;;;4.10;99.90;;;;;;6209512;23;20212;-89
2022/12/04 11:50:11;;;;;;;23.27;11.98;;;3.70;99.90;;;;;;6215114;23;20145;-87
2022/12/04 11:52:55;;;;;;;28.75;12.82;;;3.90;99.90;;;;;;6211666;23;20157;-89
2022/12/04 11:55:27;;;;;;;21.83;11.40;;;3.70;99.90;;;;;;6213862;23;20145;-89
2022/12/04 11:58:33;;;;;;;25.13;11.80;;;3.70;99.90;;;;;;6211987;23;20157;-89
2022/12/04 12:01:09;;;;;;;19.88;11.32;;;3.90;99.90;;;;;;6212633;23;20226;-89
2022/12/04 12:03:47;;;;;;;22.75;11.73;;;4.10;99.90;;;;;;6213864;23;20137;-89
2022/12/04 12:06:36;;;;;;;23.85;10.85;;;4.20;99.90;;;;;;6214226;23;20168;-89
2022/12/04 12:09:15;;;;;;;22.95;11.88;;;4.30;99.90;;;;;;6213722;23;20228;-89
2022/12/04 12:12:07;;;;;;;27.05;11.75;;;4.30;99.90;;;;;;6209696;23;20169;-89
2022/12/04 12:14:57;;;;;;;26.02;12.57;;;4.20;99.90;;;;;;6214449;23;20631;-89
2022/12/04 12:18:04;;;;;;;24.42;12.85;;;4.30;99.90;;;;;;6214211;23;20134;-88
2022/12/04 12:20:38;;;;;;;26.25;12.55;;;4.30;99.90;;;;;;6181057;23;20172;-89
2022/12/04 12:23:41;;;;;;;23.10;11.85;;;4.30;99.90;;;;;;6218148;23;20141;-89
2022/12/04 12:26:17;;;;;;;23.10;12.35;;;4.00;99.90;;;;;;6216062;23;20213;-88
2022/12/04 12:29:07;;;;;;;24.25;11.30;;;5.10;99.90;;;;;;6217213;23;20141;-89
2022/12/04 12:31:40;;;;;;;26.38;11.98;;;3.90;99.90;;;;;;6217016;23;20173;-90
2022/12/04 12:34:17;;;;;;;23.75;10.82;;;3.40;99.90;;;;;;6217722;23;20718;-89
2022/12/04 12:36:47;;;;;;;27.58;12.15;;;3.40;99.90;;;;;;6220145;23;20160;-87
2022/12/04 12:39:54;;;;;;;19.27;10.10;;;3.40;99.90;;;;;;6229818;23;20138;-89
2022/12/04 12:42:50;;;;;;;34.95;13.70;;;3.40;99.90;;;;;;6176752;23;20164;-90
2022/12/04 12:45:32;;;;;;;26.77;11.88;;;3.40;99.90;;;;;;6206816;23;20154;-89
2022/12/04 12:48:03;;;;;;;34.40;14.15;;;3.40;99.90;;;;;;6224643;23;20141;-88
2022/12/04 12:50:43;;;;;;;25.58;11.82;;;3.40;99.90;;;;;;6226730;23;20189;-88
2022/12/04 12:53:17;;;;;;;22.30;11.35;;;3.50;99.90;;;;;;6227035;23;20157;-88
2022/12/04 12:55:51;;;;;;;24.63;12.70;;;3.70;99.90;;;;;;6223570;23;20138;-90
2022/12/04 12:58:21;;;;;;;29.33;11.23;;;3.80;99.90;;;;;;6218496;23;20137;-89
2022/12/04 13:00:53;;;;;;;21.02;11.48;;;3.60;99.90;;;;;;6226494;23;20180;-89
2022/12/04 13:03:28;;;;;;;27.17;12.68;;;3.60;99.90;;;;;;6226184;23;20145;-89
2022/12/04 13:06:00;;;;;;;28.92;15.25;;;3.70;99.90;;;;;;6224566;23;20283;-90
2022/12/04 13:08:29;;;;;;;28.88;12.38;;;3.60;99.90;;;;;;6230590;22;20126;-89
2022/12/04 13:11:11;;;;;;;24.00;10.52;;;7.10;99.90;;;;;;6218179;23;20173;-89
2022/12/04 13:14:03;;;;;;;27.67;12.57;;;3.50;99.90;;;;;;6217366;23;20153;-89
2022/12/04 13:17:01;;;;;;;32.17;12.27;;;3.50;99.90;;;;;;6219947;23;20149;-89
2022/12/04 13:19:34;;;;;;;23.05;11.70;;;3.60;99.90;;;;;;6222623;23;20160;-88
2022/12/04 13:22:12;;;;;;;29.15;14.35;;;3.70;99.90;;;;;;6222382;23;20179;-88